Минеральные Воды, Россия

22 12, 2014 09:59 MSK (GMT +0300)
Mineralnyye Vody | Change Station
CLOSE
Current Station
Аэропорт
Location: Mineral'Nye Vody,
Высота над уровнем моря: 1030 ft
Ближайшие Погодные Станции

В.н.у.м. 1030 ft 44.23 °N, 43.08 °E | Updated 29 minutes ago

Mostly Cloudy
Облачно
41 °F
Ощущается Как 32 °F
С
20
Ветер переменчевый Ветер от Западный
Gusts 25 миль/ч

Сегодня
Высокий -- | Низкий -- °F
--% Вероятн. осадков
Вчера
Высокий -- | Низкий -- °F
Precip. -- дюймов
7:40 AM 4:31 PM
Новолуние, 0% visible
Давление 29.83 дюймов
Видимость 6.2 милиь
Облачность Облачно 1800 ft
Температура с учетом ветра 32 °F
Точка Росы 34 °F
Влажность воздуха 76%
Дождь 0.00 дюймов
Глубина снега Нет в наличии.
УФ 0 из 12
Пыльца Нет в наличии.
Качество воздуха Нет в наличии.
Flu Activity Нет в наличии.
METAR URMM 220630Z 28009G11MPS 9999 BKN018 05/01 Q1010 R30/CLRD70 TEMPO 28012G17MPS RMK MT OBSC QFE729/0973

More Conditions Fewer Conditions

Давление 29.83 дюймов
Видимость 6.2 милиь
Облачность Облачно 1800 ft
Температура с учетом ветра 32 °F
Точка Росы 34 °F
Влажность воздуха 76%
Дождь 0.00 дюймов
Глубина снега Нет в наличии.
УФ 0 из 12
Пыльца Нет в наличии.
Качество воздуха Нет в наличии.
Flu Activity Нет в наличии.
METAR URMM 220630Z 28009G11MPS 9999 BKN018 05/01 Q1010 R30/CLRD70 TEMPO 28012G17MPS RMK MT OBSC QFE729/0973

More Conditions Fewer Conditions

10-Day Weather Forecast

Almanac

Астрономические явления

Dec. 22, 2014 Восход Закат
Настоящее время
Гражданские сумерки
Навигационные сумерки
Астрономические сумерки
Луна
Длительность светового времени
Продолжительность Дня
Tomorrow will be .
, % of the Moon is Illuminated

Сегодняшние Экстремальные Показания

Country Highs Country Lows

Community

WunderPhotos

Upload Photos

1,779,560 фотографии загружены!

WunderBlogs® & News

Nearby

Качество воздуха

  Качество воздуха Индекс AQ Загрязнитель
Not available.

Глубина Снега

Station Depth Высота над уровнем моря

Сейсмическая активность

Город Distance Mag. Time & Date
Minimum magnitude displayed is 2.5.

Температура Прибрежных Вод

Место Температура

Ближайшие Погодные Станции